Time;durP1;ratioP1;P1;durP2;ratioP2;P2;SDS_P1;SDS_P2;PMS_P1;PMS_P2;Temp;Humidity;BMP_temperature;BMP_pressure;BME280_temperature;BME280_humidity;BME280_pressure;Samples;Min_cycle;Max_cycle;Signal;HPM_P1;HPM_P2
2022/05/16 00:01:08;;;;;;;14.00;4.55;;;16.20;94.90;;;;;;5059403;28;20487;-65
2022/05/16 00:03:34;;;;;;;11.50;4.22;;;16.20;95.00;;;;;;5057078;28;20037;-65
2022/05/16 00:06:00;;;;;;;11.38;4.50;;;16.20;95.10;;;;;;5051447;28;20048;-65
2022/05/16 00:08:26;;;;;;;9.65;4.50;;;16.10;95.30;;;;;;5059026;28;20041;-65
2022/05/16 00:10:52;;;;;;;11.48;4.30;;;16.10;95.40;;;;;;5067994;28;20139;-68
2022/05/16 00:13:17;;;;;;;12.20;3.83;;;16.10;95.60;;;;;;5062416;28;20032;-67
2022/05/16 00:15:43;;;;;;;12.77;4.85;;;16.10;95.70;;;;;;5057188;28;20044;-68
2022/05/16 00:18:09;;;;;;;10.40;4.10;;;16.00;95.80;;;;;;5065482;28;20318;-65
2022/05/16 00:20:35;;;;;;;11.15;4.53;;;16.00;96.00;;;;;;5064083;28;20117;-65
2022/05/16 00:23:00;;;;;;;13.80;4.90;;;16.00;96.10;;;;;;5052739;28;20123;-65
2022/05/16 00:25:26;;;;;;;12.50;4.30;;;16.00;96.20;;;;;;5057872;28;20520;-65
2022/05/16 00:27:52;;;;;;;11.30;4.45;;;16.00;96.30;;;;;;5070449;28;20048;-65
2022/05/16 00:30:19;;;;;;;9.98;4.30;;;15.90;96.30;;;;;;5065431;28;20128;-69
2022/05/16 00:32:48;;;;;;;13.88;4.80;;;16.00;96.40;;;;;;5063059;28;20032;-65
2022/05/16 00:35:15;;;;;;;12.30;4.65;;;15.90;96.50;;;;;;5071787;28;20563;-68
2022/05/16 00:37:41;;;;;;;13.25;4.40;;;15.90;96.50;;;;;;5071612;28;20044;-64
2022/05/16 00:40:08;;;;;;;11.85;4.65;;;15.90;96.60;;;;;;5066848;28;20410;-65
2022/05/16 00:42:33;;;;;;;9.18;4.20;;;15.90;96.70;;;;;;5066076;28;20056;-64
2022/05/16 00:44:59;;;;;;;12.43;4.72;;;15.90;96.70;;;;;;5070755;28;20502;-65
2022/05/16 00:47:25;;;;;;;13.48;4.47;;;15.90;96.70;;;;;;5071714;28;20051;-65
2022/05/16 00:49:53;;;;;;;11.15;4.38;;;15.80;96.70;;;;;;5068820;28;20039;-65
2022/05/16 00:52:27;;;;;;;12.43;4.60;;;15.80;96.80;;;;;;5056511;28;20227;-68
2022/05/16 00:55:08;;;;;;;10.63;4.50;;;15.80;96.80;;;;;;5056374;28;20551;-65
2022/05/16 00:57:42;;;;;;;10.82;4.47;;;15.80;96.90;;;;;;5068191;28;20044;-64
2022/05/16 01:00:14;;;;;;;10.48;4.43;;;15.80;96.90;;;;;;5066046;28;20475;-65
2022/05/16 01:05:36;;;;;;;13.23;4.43;;;15.80;96.90;;;;;;5051610;28;20128;-64
2022/05/16 01:08:05;;;;;;;10.75;4.40;;;15.70;96.90;;;;;;5061283;28;20127;-65
2022/05/16 01:10:31;;;;;;;9.23;4.25;;;15.70;96.90;;;;;;5055454;28;20044;-70
2022/05/16 01:12:57;;;;;;;13.73;4.40;;;15.70;96.90;;;;;;5051035;28;20033;-65
2022/05/16 01:15:46;;;;;;;8.77;4.28;;;15.70;97.00;;;;;;5060948;28;20036;-65
2022/05/16 01:18:18;;;;;;;12.70;4.47;;;15.70;97.00;;;;;;5068280;28;20389;-65
2022/05/16 01:21:02;;;;;;;12.38;4.30;;;15.60;97.20;;;;;;5062368;28;20471;-64
2022/05/16 01:23:31;;;;;;;11.32;4.97;;;15.60;97.00;;;;;;5051693;28;20049;-66
2022/05/16 01:26:00;;;;;;;11.30;4.32;;;15.60;97.00;;;;;;5059647;28;20123;-68
2022/05/16 01:28:26;;;;;;;10.43;3.97;;;15.60;97.10;;;;;;5069654;28;20387;-66
2022/05/16 01:30:54;;;;;;;13.20;4.30;;;15.60;97.10;;;;;;5066447;28;20044;-68
2022/05/16 01:33:23;;;;;;;20.45;4.40;;;15.60;97.10;;;;;;5069319;28;20071;-65
2022/05/16 01:35:49;;;;;;;15.73;4.63;;;15.60;97.20;;;;;;5060597;28;20057;-65
2022/05/16 01:38:18;;;;;;;10.05;4.18;;;15.50;97.20;;;;;;5059760;28;20040;-66
2022/05/16 01:40:54;;;;;;;12.80;4.38;;;15.50;97.20;;;;;;5067407;28;20032;-65
2022/05/16 01:43:23;;;;;;;11.40;4.35;;;15.50;97.30;;;;;;5051074;28;20048;-65
2022/05/16 01:45:49;;;;;;;11.38;4.45;;;15.50;97.30;;;;;;5055224;28;20040;-65
2022/05/16 01:48:16;;;;;;;13.98;5.03;;;15.40;97.30;;;;;;5070417;28;20044;-65
2022/05/16 01:50:42;;;;;;;11.05;4.32;;;15.40;97.40;;;;;;5054508;28;20740;-64
2022/05/16 01:53:09;;;;;;;12.68;4.80;;;15.40;97.40;;;;;;5068307;28;20055;-66
2022/05/16 01:55:35;;;;;;;14.20;5.05;;;15.40;97.40;;;;;;5070515;28;20051;-65
2022/05/16 01:58:01;;;;;;;10.27;4.45;;;15.30;97.40;;;;;;5069625;28;20119;-65
2022/05/16 02:00:26;;;;;;;12.55;4.40;;;15.30;97.50;;;;;;5068857;28;20044;-66
2022/05/16 02:02:52;;;;;;;12.60;4.45;;;15.30;97.60;;;;;;5068320;28;20037;-70
2022/05/16 02:05:21;;;;;;;11.52;4.63;;;15.30;97.60;;;;;;5067980;28;20418;-65
2022/05/16 02:07:48;;;;;;;12.13;4.70;;;15.30;97.70;;;;;;5068873;28;20049;-65
2022/05/16 02:10:15;;;;;;;13.75;4.55;;;15.30;97.60;;;;;;5065171;28;20052;-64
2022/05/16 02:12:42;;;;;;;7.22;3.75;;;15.20;97.60;;;;;;5050484;28;20040;-65
2022/05/16 02:15:11;;;;;;;10.88;4.10;;;15.20;97.60;;;;;;5050468;28;20535;-65
2022/05/16 02:17:37;;;;;;;14.10;4.85;;;15.20;97.70;;;;;;5064528;28;20093;-66
2022/05/16 02:20:04;;;;;;;13.07;4.38;;;15.20;97.70;;;;;;5067302;28;20111;-69
2022/05/16 02:25:13;;;;;;;10.68;4.47;;;15.20;97.80;;;;;;5071220;28;20044;-64
2022/05/16 02:27:39;;;;;;;11.27;4.15;;;15.20;97.80;;;;;;5073022;28;20055;-65
2022/05/16 02:30:07;;;;;;;13.63;4.70;;;15.20;97.80;;;;;;5072106;28;20148;-69
2022/05/16 02:32:32;;;;;;;11.13;4.25;;;15.10;97.80;;;;;;5058949;28;20128;-64
2022/05/16 02:34:58;;;;;;;14.35;4.07;;;15.10;97.80;;;;;;5065430;28;20532;-65
2022/05/16 02:37:23;;;;;;;12.63;4.15;;;15.10;97.80;;;;;;5073822;28;20041;-65
2022/05/16 02:39:49;;;;;;;12.32;4.07;;;15.10;97.80;;;;;;5071948;28;20112;-68
2022/05/16 02:42:15;;;;;;;11.43;4.00;;;15.00;97.80;;;;;;5054226;28;20035;-68
2022/05/16 02:44:42;;;;;;;12.43;4.47;;;15.10;97.80;;;;;;5060155;28;20394;-70
2022/05/16 02:47:14;;;;;;;9.45;4.32;;;15.00;97.80;;;;;;5073941;28;20044;-65
2022/05/16 02:49:40;;;;;;;11.02;4.43;;;15.00;97.90;;;;;;5070968;28;20041;-65
2022/05/16 02:52:06;;;;;;;12.52;4.30;;;14.90;97.80;;;;;;5071417;28;20039;-65
2022/05/16 02:54:32;;;;;;;12.48;4.60;;;14.90;97.90;;;;;;5072766;28;20044;-66
2022/05/16 02:56:58;;;;;;;10.60;3.88;;;14.90;97.90;;;;;;5072744;28;20071;-68
2022/05/16 02:59:26;;;;;;;10.25;3.80;;;14.90;97.90;;;;;;5070098;28;20507;-65
2022/05/16 03:01:53;;;;;;;10.35;4.35;;;14.90;97.90;;;;;;5055942;28;20394;-65
2022/05/16 03:04:18;;;;;;;14.43;4.15;;;14.90;97.90;;;;;;5061115;28;20040;-65
2022/05/16 03:06:44;;;;;;;10.48;4.28;;;14.80;97.90;;;;;;5071636;28;20136;-67
2022/05/16 03:09:10;;;;;;;16.00;4.78;;;14.80;97.90;;;;;;5070249;28;20063;-65
2022/05/16 03:11:36;;;;;;;10.23;4.63;;;14.80;97.90;;;;;;5065916;28;20505;-65
2022/05/16 03:14:01;;;;;;;11.52;4.05;;;14.80;97.90;;;;;;5068589;28;20040;-64
2022/05/16 03:16:27;;;;;;;11.40;5.03;;;14.80;97.90;;;;;;5073587;28;20475;-64
2022/05/16 03:18:52;;;;;;;11.80;4.53;;;14.70;97.90;;;;;;5071621;28;20033;-65
2022/05/16 03:21:19;;;;;;;12.25;4.32;;;14.70;97.90;;;;;;5067236;28;20037;-67
2022/05/16 03:23:45;;;;;;;10.93;4.85;;;14.70;98.00;;;;;;5062908;28;20041;-65
2022/05/16 03:26:11;;;;;;;10.93;4.05;;;14.70;98.00;;;;;;5073064;28;20033;-65
2022/05/16 03:28:37;;;;;;;10.52;4.32;;;14.70;98.00;;;;;;5073068;28;20036;-67
2022/05/16 03:31:03;;;;;;;12.80;4.38;;;14.70;98.00;;;;;;5062075;28;20395;-68
2022/05/16 03:33:29;;;;;;;10.80;4.00;;;14.70;98.00;;;;;;5067134;28;20171;-66
2022/05/16 03:35:58;;;;;;;11.13;4.20;;;14.70;98.00;;;;;;5072706;28;20115;-71
2022/05/16 03:41:13;;;;;;;17.65;6.22;;;14.70;98.00;;;;;;5067340;28;20040;-65
2022/05/16 03:43:40;;;;;;;14.25;5.78;;;14.60;98.00;;;;;;5072291;28;20039;-64
2022/05/16 03:46:07;;;;;;;14.60;5.93;;;14.60;98.00;;;;;;5072935;28;20496;-65
2022/05/16 03:48:33;;;;;;;16.50;6.15;;;14.60;98.10;;;;;;5073005;28;20071;-65
2022/05/16 03:51:00;;;;;;;14.35;5.43;;;14.60;98.10;;;;;;5070239;28;20040;-69
2022/05/16 03:53:26;;;;;;;13.98;5.53;;;14.60;98.10;;;;;;5072923;28;20416;-65
2022/05/16 03:55:52;;;;;;;15.80;5.47;;;14.60;98.10;;;;;;5072639;28;20040;-65
2022/05/16 03:58:18;;;;;;;13.65;5.18;;;14.60;98.20;;;;;;5072329;28;20411;-65
2022/05/16 04:00:44;;;;;;;14.13;4.95;;;14.50;98.20;;;;;;5067910;28;20036;-70
2022/05/16 04:03:09;;;;;;;11.98;5.13;;;14.60;98.20;;;;;;5061613;28;20479;-67
2022/05/16 04:05:35;;;;;;;11.32;5.07;;;14.60;98.20;;;;;;5066838;28;20040;-66
2022/05/16 04:08:02;;;;;;;11.35;4.53;;;14.60;98.30;;;;;;5068715;28;20032;-65
2022/05/16 04:10:27;;;;;;;14.18;4.82;;;14.60;98.30;;;;;;5052219;28;20068;-70
2022/05/16 04:12:54;;;;;;;13.32;4.63;;;14.60;98.30;;;;;;5052715;28;20064;-65
2022/05/16 04:15:21;;;;;;;13.30;4.50;;;14.50;98.30;;;;;;5064229;28;20115;-71
2022/05/16 04:17:47;;;;;;;12.15;4.32;;;14.50;98.30;;;;;;5055033;28;20048;-65
2022/05/16 04:20:13;;;;;;;10.75;4.07;;;14.50;98.30;;;;;;5068121;28;20402;-64
2022/05/16 04:22:39;;;;;;;11.40;4.25;;;14.50;98.30;;;;;;5072598;28;20040;-65
2022/05/16 04:25:07;;;;;;;11.77;4.30;;;14.50;98.40;;;;;;5072038;28;20379;-65
2022/05/16 04:27:32;;;;;;;15.57;4.30;;;14.50;98.40;;;;;;5067728;28;20098;-66
2022/05/16 04:29:58;;;;;;;11.07;4.20;;;14.50;98.40;;;;;;5071792;28;20040;-68
2022/05/16 04:32:24;;;;;;;10.13;3.83;;;14.50;98.40;;;;;;5071588;28;20126;-65
2022/05/16 04:34:49;;;;;;;9.90;3.95;;;14.50;98.50;;;;;;5071799;28;20044;-64
2022/05/16 04:37:15;;;;;;;8.40;3.80;;;14.50;98.50;;;;;;5056932;28;20494;-67
2022/05/16 04:39:40;;;;;;;16.08;4.10;;;14.50;98.50;;;;;;5051503;28;20045;-68
2022/05/16 04:44:50;;;;;;;9.65;3.97;;;14.50;98.50;;;;;;5071946;28;20040;-67
2022/05/16 04:47:16;;;;;;;9.65;3.70;;;14.50;98.50;;;;;;5067013;28;20105;-65
2022/05/16 04:49:42;;;;;;;10.27;4.10;;;14.50;98.50;;;;;;5071449;28;20036;-65
2022/05/16 04:52:11;;;;;;;13.90;4.53;;;14.50;98.50;;;;;;5066923;28;20052;-64
2022/05/16 04:54:37;;;;;;;12.30;3.83;;;14.50;98.50;;;;;;5070000;28;20037;-65
2022/05/16 04:57:03;;;;;;;17.92;4.18;;;14.50;98.50;;;;;;5068990;28;20084;-68
2022/05/16 04:59:29;;;;;;;10.13;4.05;;;14.50;98.50;;;;;;5055234;28;20040;-71
2022/05/16 05:01:54;;;;;;;10.38;3.60;;;14.60;98.60;;;;;;5068617;28;20040;-65
2022/05/16 05:04:21;;;;;;;11.65;3.95;;;14.50;98.60;;;;;;5065493;28;20146;-64
2022/05/16 05:06:47;;;;;;;12.45;4.20;;;14.50;98.60;;;;;;5061371;28;20042;-65
2022/05/16 05:09:13;;;;;;;11.68;4.22;;;14.50;98.70;;;;;;5055211;28;20483;-65
2022/05/16 05:14:34;;;;;;;14.23;4.72;;;14.60;98.70;;;;;;5064951;28;20048;-65
2022/05/16 05:17:06;;;;;;;13.45;3.85;;;14.60;98.70;;;;;;5061863;28;20041;-65
2022/05/16 05:19:33;;;;;;;12.18;4.05;;;14.60;98.80;;;;;;5070923;28;20147;-65
2022/05/16 05:21:59;;;;;;;11.25;3.75;;;14.60;98.80;;;;;;5069695;28;20233;-67
2022/05/16 05:24:25;;;;;;;12.23;4.13;;;14.70;98.90;;;;;;5066974;28;20076;-65
2022/05/16 05:26:51;;;;;;;15.68;4.18;;;14.70;98.90;;;;;;5068630;28;20040;-64
2022/05/16 05:29:18;;;;;;;11.70;3.75;;;14.60;98.90;;;;;;5056957;28;20101;-67
2022/05/16 05:31:43;;;;;;;8.60;3.40;;;14.70;98.90;;;;;;5056986;28;20045;-65
2022/05/16 05:34:11;;;;;;;11.82;4.25;;;14.70;98.90;;;;;;5051279;28;20048;-65
2022/05/16 05:36:38;;;;;;;12.85;4.00;;;14.70;98.90;;;;;;5054428;28;20047;-64
2022/05/16 05:41:37;;;;;;;11.13;4.25;;;14.80;99.00;;;;;;5088202;28;20048;-68
2022/05/16 05:44:02;;;;;;;13.07;4.30;;;14.80;99.00;;;;;;5081925;28;20039;-66
2022/05/16 05:46:37;;;;;;;10.45;3.88;;;14.80;98.90;;;;;;5086309;28;20035;-67
2022/05/16 05:49:04;;;;;;;14.07;4.38;;;14.90;99.00;;;;;;5083420;28;20117;-66
2022/05/16 05:51:30;;;;;;;15.57;3.83;;;14.80;99.00;;;;;;5061394;28;20502;-67
2022/05/16 05:53:55;;;;;;;9.70;4.28;;;14.90;99.00;;;;;;5051225;28;20072;-67
2022/05/16 05:56:21;;;;;;;10.93;4.20;;;14.90;99.00;;;;;;5063300;28;20039;-67
2022/05/16 05:58:46;;;;;;;12.15;4.40;;;14.90;99.00;;;;;;5067384;28;20466;-69
2022/05/16 06:01:12;;;;;;;11.57;4.10;;;15.00;99.10;;;;;;5062847;28;20035;-67
2022/05/16 06:03:38;;;;;;;10.13;4.18;;;15.00;99.10;;;;;;5070649;28;20044;-65
2022/05/16 06:06:04;;;;;;;10.65;3.75;;;15.00;99.10;;;;;;5063920;28;20032;-66
2022/05/16 06:08:29;;;;;;;12.45;4.20;;;15.10;99.10;;;;;;5065429;28;20072;-67
2022/05/16 06:10:55;;;;;;;8.63;4.20;;;15.10;99.10;;;;;;5059847;28;20427;-67
2022/05/16 06:13:21;;;;;;;14.80;3.92;;;15.10;99.10;;;;;;5059348;28;20043;-67
2022/05/16 06:15:46;;;;;;;12.07;4.72;;;15.20;99.10;;;;;;5063822;28;20041;-67
2022/05/16 06:18:12;;;;;;;13.45;4.07;;;15.20;99.10;;;;;;5063114;28;20112;-68
2022/05/16 06:20:38;;;;;;;11.73;4.43;;;15.20;99.10;;;;;;5061468;28;20036;-67
2022/05/16 06:23:04;;;;;;;12.48;4.22;;;15.20;99.10;;;;;;5065759;28;20039;-67
2022/05/16 06:25:39;;;;;;;12.07;4.30;;;15.30;99.20;;;;;;5055404;28;20036;-67
2022/05/16 06:28:13;;;;;;;9.13;3.85;;;15.30;99.20;;;;;;5067019;28;20044;-67
2022/05/16 06:30:41;;;;;;;11.02;3.95;;;15.40;99.20;;;;;;5057618;28;20041;-67
2022/05/16 06:33:07;;;;;;;12.35;4.20;;;15.40;99.20;;;;;;5065233;28;20318;-67
2022/05/16 06:35:34;;;;;;;17.35;4.57;;;15.40;99.10;;;;;;5070540;28;20048;-68
2022/05/16 06:38:13;;;;;;;10.25;4.05;;;15.50;99.10;;;;;;5050121;28;20533;-67
2022/05/16 06:40:42;;;;;;;14.40;4.50;;;15.50;99.10;;;;;;5078137;28;20123;-66
2022/05/16 06:43:08;;;;;;;9.35;3.50;;;15.60;99.00;;;;;;5077593;28;20089;-67
2022/05/16 06:45:34;;;;;;;13.07;4.35;;;15.60;98.90;;;;;;5077401;28;20103;-67
2022/05/16 06:48:01;;;;;;;12.35;4.75;;;15.70;98.90;;;;;;5082855;28;20401;-68
2022/05/16 06:50:28;;;;;;;11.57;4.72;;;15.80;98.80;;;;;;5077856;28;20041;-71
2022/05/16 06:52:53;;;;;;;8.68;3.50;;;15.80;98.70;;;;;;5074967;28;20469;-69
2022/05/16 06:55:19;;;;;;;10.88;4.43;;;15.90;98.60;;;;;;5079722;28;20071;-68
2022/05/16 06:57:44;;;;;;;10.75;4.22;;;16.00;98.70;;;;;;5070781;28;20063;-66
2022/05/16 07:00:11;;;;;;;15.45;5.10;;;16.00;98.60;;;;;;5078936;28;20043;-67
2022/05/16 07:02:37;;;;;;;12.02;4.00;;;16.10;98.60;;;;;;5075501;28;20136;-67
2022/05/16 07:05:03;;;;;;;10.48;3.83;;;16.10;98.40;;;;;;5075099;28;20394;-67
2022/05/16 07:07:29;;;;;;;15.25;4.72;;;16.20;98.40;;;;;;5075088;28;20032;-67
2022/05/16 07:09:55;;;;;;;12.27;4.28;;;16.20;98.40;;;;;;5076256;28;20249;-67
2022/05/16 07:12:21;;;;;;;12.20;4.00;;;16.30;98.20;;;;;;5076644;28;20119;-67
2022/05/16 07:14:47;;;;;;;12.65;3.80;;;16.40;98.20;;;;;;5082398;28;20032;-67
2022/05/16 07:17:13;;;;;;;12.02;4.60;;;16.50;98.10;;;;;;5081721;28;20048;-67
2022/05/16 07:19:38;;;;;;;13.48;4.82;;;16.50;98.00;;;;;;5076516;28;20264;-67
2022/05/16 07:22:14;;;;;;;12.90;3.97;;;16.60;98.00;;;;;;5078783;28;20509;-66
2022/05/16 07:24:41;;;;;;;13.02;4.82;;;16.70;98.00;;;;;;5090677;28;20043;-66
2022/05/16 07:29:51;;;;;;;9.80;4.60;;;16.90;97.90;;;;;;5080116;28;20123;-66
2022/05/16 07:32:16;;;;;;;13.27;4.28;;;17.00;97.80;;;;;;5076232;28;20111;-66
2022/05/16 07:34:42;;;;;;;12.88;3.88;;;17.10;97.60;;;;;;5076990;28;20052;-67
2022/05/16 07:37:08;;;;;;;13.80;4.28;;;17.20;97.50;;;;;;5074474;28;20482;-65
2022/05/16 07:39:38;;;;;;;12.57;4.47;;;17.20;97.30;;;;;;5072031;28;20033;-65
2022/05/16 07:42:08;;;;;;;10.27;4.43;;;17.30;97.20;;;;;;5083116;28;20157;-69
2022/05/16 07:44:35;;;;;;;12.88;4.35;;;17.30;97.20;;;;;;5084056;28;20116;-67
2022/05/16 07:47:01;;;;;;;14.50;4.70;;;17.40;97.20;;;;;;5085534;28;20040;-68
2022/05/16 07:49:26;;;;;;;11.65;3.72;;;17.40;97.20;;;;;;5089298;28;20615;-67
2022/05/16 07:51:52;;;;;;;11.07;3.95;;;17.50;97.20;;;;;;5081150;28;20129;-67
2022/05/16 07:54:18;;;;;;;11.80;4.32;;;17.60;97.10;;;;;;5083510;28;20032;-66
2022/05/16 07:56:43;;;;;;;11.00;3.95;;;17.70;97.00;;;;;;5081146;28;20047;-67
2022/05/16 07:59:09;;;;;;;15.45;4.00;;;17.80;97.00;;;;;;5083890;28;20048;-67
2022/05/16 08:01:37;;;;;;;12.85;4.10;;;17.80;96.90;;;;;;5071036;28;20059;-65
2022/05/16 08:04:06;;;;;;;10.35;3.90;;;17.90;96.90;;;;;;5071479;28;20178;-67
2022/05/16 08:06:33;;;;;;;15.52;4.28;;;18.00;96.90;;;;;;5087431;28;20046;-65
2022/05/16 08:11:43;;;;;;;10.15;3.90;;;18.30;96.80;;;;;;5080908;28;20052;-65
2022/05/16 08:14:08;;;;;;;17.33;4.10;;;18.50;96.90;;;;;;5087116;28;20036;-69
2022/05/16 08:16:34;;;;;;;13.88;3.80;;;18.60;96.60;;;;;;5083632;28;20067;-68
2022/05/16 08:19:00;;;;;;;13.85;4.22;;;18.80;96.50;;;;;;5083707;28;20074;-67
2022/05/16 08:21:25;;;;;;;12.40;4.00;;;18.90;96.10;;;;;;5079752;28;20494;-67
2022/05/16 08:23:51;;;;;;;10.68;3.42;;;19.10;96.10;;;;;;5073883;28;20097;-67
2022/05/16 08:26:17;;;;;;;10.18;3.50;;;19.40;95.80;;;;;;5083339;28;20081;-66
2022/05/16 08:28:42;;;;;;;11.93;3.70;;;19.70;95.60;;;;;;5073405;28;20036;-67
2022/05/16 08:31:08;;;;;;;12.35;3.67;;;19.90;95.30;;;;;;5063269;28;20048;-67
2022/05/16 08:33:36;;;;;;;10.95;3.30;;;20.10;94.80;;;;;;5073806;28;20118;-67
2022/05/16 08:41:38;;;;;;;11.25;3.35;;;20.60;93.50;;;;;;5071092;28;20040;-67
2022/05/16 08:44:14;;;;;;;14.07;3.85;;;20.80;93.00;;;;;;5073075;28;20111;-67
2022/05/16 08:46:55;;;;;;;14.15;4.10;;;21.10;92.40;;;;;;5088217;28;20366;-66
2022/05/16 08:49:32;;;;;;;12.25;4.07;;;21.40;91.60;;;;;;5086567;28;20032;-64
2022/05/16 08:52:09;;;;;;;10.65;3.88;;;21.50;91.40;;;;;;5089888;28;20157;-65
2022/05/16 08:54:43;;;;;;;11.05;3.45;;;21.60;91.00;;;;;;5077953;28;20036;-65
2022/05/16 08:57:13;;;;;;;11.13;3.70;;;21.70;90.90;;;;;;5077601;28;20048;-68
2022/05/16 08:59:41;;;;;;;11.52;3.67;;;21.80;90.20;;;;;;5072690;28;20039;-69
2022/05/16 09:02:21;;;;;;;12.75;3.95;;;21.90;90.10;;;;;;5085737;28;20036;-69
2022/05/16 09:05:12;;;;;;;11.23;3.80;;;22.10;89.70;;;;;;5079291;28;20044;-70
2022/05/16 09:07:48;;;;;;;12.73;3.75;;;22.40;89.10;;;;;;5074451;28;20055;-70
2022/05/16 09:10:28;;;;;;;10.38;3.85;;;22.60;86.90;;;;;;5076711;28;20055;-68
2022/05/16 09:13:04;;;;;;;11.30;3.20;;;22.80;86.50;;;;;;5076632;28;20028;-70
2022/05/16 09:15:30;;;;;;;9.65;3.13;;;23.10;86.90;;;;;;5071838;28;20087;-69
2022/05/16 09:18:10;;;;;;;11.30;3.80;;;23.30;85.50;;;;;;5087788;28;20037;-69
2022/05/16 09:20:47;;;;;;;12.30;4.00;;;23.60;84.10;;;;;;5075632;28;20040;-69
2022/05/16 09:23:34;;;;;;;17.02;3.80;;;23.60;82.50;;;;;;5079855;28;20377;-67
2022/05/16 09:26:21;;;;;;;11.07;3.58;;;23.80;79.80;;;;;;5082196;28;20028;-67
2022/05/16 09:28:54;;;;;;;16.20;4.43;;;23.80;78.50;;;;;;5084503;28;20109;-70
2022/05/16 09:31:26;;;;;;;9.48;3.80;;;23.80;75.90;;;;;;5078821;28;20673;-69
2022/05/16 09:33:55;;;;;;;9.00;3.75;;;23.70;75.10;;;;;;5086888;28;20040;-68
2022/05/16 09:36:36;;;;;;;9.10;3.35;;;23.60;76.40;;;;;;5086904;28;20036;-67
2022/05/16 09:39:04;;;;;;;10.20;3.65;;;23.50;75.80;;;;;;5073509;28;20040;-67
2022/05/16 09:41:44;;;;;;;10.25;3.55;;;23.50;76.20;;;;;;5075715;28;20051;-67
2022/05/16 09:44:27;;;;;;;12.48;3.83;;;23.50;74.10;;;;;;5068782;28;20461;-67
2022/05/16 09:47:16;;;;;;;11.75;3.72;;;23.50;75.70;;;;;;5058480;28;20424;-67
2022/05/16 09:49:42;;;;;;;10.00;4.10;;;23.50;74.10;;;;;;5078553;28;20043;-68
2022/05/16 09:52:21;;;;;;;12.93;4.60;;;23.50;75.00;;;;;;5077028;28;20040;-69
2022/05/16 09:55:02;;;;;;;10.75;3.97;;;23.50;74.20;;;;;;5067656;28;20078;-69
2022/05/16 09:57:28;;;;;;;10.95;4.13;;;23.70;74.60;;;;;;5072750;28;20150;-68
2022/05/16 10:00:16;;;;;;;12.00;4.00;;;23.70;74.80;;;;;;5070428;28;20459;-69
2022/05/16 10:02:42;;;;;;;7.90;3.80;;;23.80;74.80;;;;;;5078093;28;20460;-67
2022/05/16 10:05:19;;;;;;;9.68;5.07;;;23.90;75.50;;;;;;5082312;28;20078;-66
2022/05/16 10:07:49;;;;;;;10.93;4.55;;;24.00;74.20;;;;;;5062687;28;20090;-69
2022/05/16 10:10:21;;;;;;;8.48;3.78;;;23.90;74.20;;;;;;5078100;28;20050;-69
2022/05/16 10:12:48;;;;;;;8.98;4.20;;;23.80;74.00;;;;;;5079605;28;20115;-68
2022/05/16 10:15:14;;;;;;;8.90;4.50;;;23.60;74.50;;;;;;5073672;28;20071;-67
2022/05/16 10:17:43;;;;;;;8.38;4.00;;;23.50;74.10;;;;;;5085830;28;20493;-70
2022/05/16 10:20:21;;;;;;;8.73;4.22;;;23.30;74.20;;;;;;5087280;28;20363;-69
2022/05/16 10:22:50;;;;;;;10.60;4.35;;;23.20;74.60;;;;;;5083014;28;20036;-68
2022/05/16 10:25:19;;;;;;;8.43;3.83;;;23.00;75.50;;;;;;5088955;28;20032;-69
2022/05/16 10:27:48;;;;;;;7.70;3.70;;;22.90;76.30;;;;;;5076617;28;20064;-69
2022/05/16 10:30:21;;;;;;;12.57;4.35;;;22.80;76.70;;;;;;5070647;28;20118;-67
2022/05/16 10:35:50;;;;;;;11.73;4.22;;;22.90;76.20;;;;;;5084975;28;20405;-67
2022/05/16 10:38:25;;;;;;;11.85;3.90;;;22.90;76.10;;;;;;5079518;28;20505;-67
2022/05/16 10:40:58;;;;;;;10.80;4.18;;;22.80;75.30;;;;;;5089767;28;20039;-67
2022/05/16 10:43:41;;;;;;;11.23;4.20;;;22.80;76.00;;;;;;5079239;28;20394;-67
2022/05/16 10:46:21;;;;;;;9.63;4.07;;;22.80;76.10;;;;;;5083098;28;20044;-68
2022/05/16 10:48:58;;;;;;;8.75;4.15;;;22.60;76.10;;;;;;5089862;28;20036;-69
2022/05/16 10:51:37;;;;;;;8.68;4.82;;;22.50;76.20;;;;;;5084522;28;20040;-67
2022/05/16 10:54:09;;;;;;;12.23;4.20;;;22.50;77.00;;;;;;5086530;28;20047;-68
2022/05/16 10:56:48;;;;;;;11.77;4.18;;;22.40;78.10;;;;;;5082993;28;20040;-66
2022/05/16 10:59:56;;;;;;;8.82;4.28;;;22.40;78.10;;;;;;5084804;28;20081;-67
2022/05/16 11:02:33;;;;;;;9.32;3.80;;;22.30;79.00;;;;;;5086632;28;20032;-68
2022/05/16 11:05:15;;;;;;;10.23;3.53;;;22.30;79.00;;;;;;5085812;28;20461;-68
2022/05/16 11:07:57;;;;;;;12.02;3.63;;;22.30;79.80;;;;;;5080564;28;20033;-66
2022/05/16 11:10:31;;;;;;;13.77;4.07;;;22.40;79.80;;;;;;5083488;28;20035;-67
2022/05/16 11:13:25;;;;;;;23.23;4.70;;;22.40;80.40;;;;;;5081842;28;20581;-69
2022/05/16 11:16:08;;;;;;;11.23;4.50;;;22.40;79.70;;;;;;5080007;28;20569;-69
2022/05/16 11:18:41;;;;;;;7.38;3.88;;;22.40;80.40;;;;;;5081018;28;20055;-69
2022/05/16 11:21:19;;;;;;;20.83;4.63;;;22.50;80.30;;;;;;5084395;28;20066;-69
2022/05/16 11:24:31;;;;;;;7.95;3.80;;;22.50;81.00;;;;;;5081786;28;20031;-65
2022/05/16 11:27:03;;;;;;;8.63;3.45;;;22.50;80.90;;;;;;5078303;28;20149;-69
2022/05/16 11:29:49;;;;;;;7.72;4.07;;;22.60;81.20;;;;;;5075809;28;20040;-69
2022/05/16 11:32:34;;;;;;;7.97;3.60;;;22.60;81.10;;;;;;5076630;28;20089;-69
2022/05/16 11:35:06;;;;;;;10.48;4.28;;;22.60;81.40;;;;;;5084262;28;20043;-66
2022/05/16 11:37:46;;;;;;;9.13;3.30;;;22.60;81.70;;;;;;5075978;28;20123;-66
2022/05/16 11:40:36;;;;;;;11.80;4.00;;;22.60;81.40;;;;;;5078642;28;20094;-68
2022/05/16 11:43:28;;;;;;;8.43;3.67;;;22.70;81.30;;;;;;5081984;28;20051;-67
2022/05/16 11:46:17;;;;;;;8.88;3.53;;;22.70;82.40;;;;;;5074071;28;20051;-67
2022/05/16 11:49:08;;;;;;;8.25;3.60;;;22.70;82.40;;;;;;5078369;28;20047;-67
2022/05/16 11:51:48;;;;;;;10.80;4.00;;;22.70;81.50;;;;;;5086259;22;20052;-68
2022/05/16 11:54:17;;;;;;;10.10;3.45;;;22.70;81.40;;;;;;5035798;28;20491;-65
2022/05/16 12:03:16;;;;;;;8.27;3.80;;;22.80;82.30;;;;;;4961147;28;20050;-67
2022/05/16 12:05:46;;;;;;;8.75;3.50;;;22.70;82.80;;;;;;5026303;28;20041;-67
2022/05/16 12:08:31;;;;;;;8.48;3.90;;;22.80;83.30;;;;;;5041534;28;20049;-67
2022/05/16 12:11:03;;;;;;;10.65;3.60;;;22.80;82.70;;;;;;5036030;28;20045;-65
2022/05/16 12:13:34;;;;;;;9.20;4.07;;;22.90;82.50;;;;;;5018012;28;20046;-67
2022/05/16 12:16:21;;;;;;;;;;;23.00;82.60;;;;;;5042770;28;20155;-67
2022/05/16 12:19:25;;;;;;;8.00;4.53;;;23.20;83.60;;;;;;5050815;28;19921;-66
2022/05/16 12:22:04;;;;;;;7.28;3.53;;;23.30;83.10;;;;;;5034879;28;20072;-67
2022/05/16 12:24:42;;;;;;;6.55;4.07;;;23.50;82.60;;;;;;5051299;28;20086;-66
2022/05/16 12:27:16;;;;;;;10.55;4.43;;;23.70;81.50;;;;;;5051378;28;20521;-67
2022/05/16 12:29:46;;;;;;;9.63;3.92;;;24.10;81.10;;;;;;5023406;28;20099;-67
2022/05/16 12:32:30;;;;;;;9.90;4.38;;;24.40;81.30;;;;;;5019363;28;20041;-67
2022/05/16 12:35:01;;;;;;;9.50;4.50;;;24.80;79.70;;;;;;5016983;28;20041;-64
2022/05/16 12:37:27;;;;;;;9.17;4.20;;;25.00;78.60;;;;;;5032285;28;20095;-67
2022/05/16 12:40:24;;;;;;;9.23;4.05;;;25.00;76.70;;;;;;5032368;28;20272;-67
2022/05/16 12:43:03;;;;;;;11.93;4.75;;;25.00;74.90;;;;;;5030169;28;20090;-67
2022/05/16 12:46:07;;;;;;;10.73;4.63;;;24.90;75.50;;;;;;5030879;28;20041;-68
2022/05/16 12:48:44;;;;;;;9.88;5.30;;;24.80;76.10;;;;;;5032740;28;20047;-67
2022/05/16 12:51:36;;;;;;;11.77;4.78;;;24.70;76.40;;;;;;5032255;28;20041;-66
2022/05/16 12:54:02;;;;;;;;;;;24.70;75.70;;;;;;4997218;28;20087;-66
2022/05/16 12:56:45;;;;;;;9.63;4.93;;;24.70;75.70;;;;;;5046509;28;19968;-67
2022/05/16 12:59:19;;;;;;;9.55;5.47;;;24.60;76.10;;;;;;5025829;28;20094;-67
2022/05/16 13:02:09;;;;;;;10.88;6.13;;;24.50;76.50;;;;;;5051243;28;20046;-67
2022/05/16 13:04:56;;;;;;;11.35;6.20;;;24.40;76.70;;;;;;5045386;28;20033;-67
2022/05/16 13:07:33;;;;;;;14.20;7.63;;;24.30;77.10;;;;;;5033367;28;20321;-68
2022/05/16 13:10:03;;;;;;;14.10;7.55;;;24.20;77.70;;;;;;5043457;28;20037;-66
2022/05/16 13:12:51;;;;;;;17.48;6.75;;;24.20;78.70;;;;;;5051245;28;20036;-67
2022/05/16 13:15:26;;;;;;;12.85;8.02;;;24.30;79.10;;;;;;5032600;28;20029;-66
2022/05/16 13:17:57;;;;;;;11.98;7.00;;;24.50;79.10;;;;;;5050454;28;20083;-67
2022/05/16 13:20:30;;;;;;;11.52;7.07;;;24.80;79.30;;;;;;5048467;28;20045;-65
2022/05/16 13:22:55;;;;;;;12.10;7.85;;;25.10;79.30;;;;;;5029795;28;20079;-66
2022/05/16 13:25:23;;;;;;;16.10;8.15;;;25.30;78.70;;;;;;5043963;28;20064;-66
2022/05/16 13:31:02;;;;;;;13.95;7.95;;;25.80;77.70;;;;;;4995644;28;20081;-67
2022/05/16 13:33:33;;;;;;;10.43;7.18;;;26.00;76.60;;;;;;4989234;28;20073;-67
2022/05/16 13:36:19;;;;;;;13.18;8.07;;;26.10;76.10;;;;;;5017122;28;20045;-67